sensor_id;sensor_type;location;lat;lon;timestamp;temperature;humidity
9699;DHT22;10089;47.876;8.346;2023-07-02T00:01:42;16.20;99.90
9699;DHT22;10089;47.876;8.346;2023-07-02T00:04:08;15.20;99.90
9699;DHT22;10089;47.876;8.346;2023-07-02T00:06:34;15.40;99.90
9699;DHT22;10089;47.876;8.346;2023-07-02T00:09:06;15.10;99.90
9699;DHT22;10089;47.876;8.346;2023-07-02T00:11:31;16.10;99.90
9699;DHT22;10089;47.876;8.346;2023-07-02T00:13:57;15.40;99.90
9699;DHT22;10089;47.876;8.346;2023-07-02T00:16:23;15.00;99.90
9699;DHT22;10089;47.876;8.346;2023-07-02T00:18:48;15.20;99.90
9699;DHT22;10089;47.876;8.346;2023-07-02T00:21:18;15.20;99.90
9699;DHT22;10089;47.876;8.346;2023-07-02T00:23:44;15.60;99.90
9699;DHT22;10089;47.876;8.346;2023-07-02T00:26:10;16.60;99.90
9699;DHT22;10089;47.876;8.346;2023-07-02T00:28:35;16.60;99.90
9699;DHT22;10089;47.876;8.346;2023-07-02T00:31:01;16.30;99.90
9699;DHT22;10089;47.876;8.346;2023-07-02T00:33:27;15.90;99.90
9699;DHT22;10089;47.876;8.346;2023-07-02T00:35:54;15.00;99.90
9699;DHT22;10089;47.876;8.346;2023-07-02T00:38:20;16.00;99.90
9699;DHT22;10089;47.876;8.346;2023-07-02T00:40:45;15.30;99.90
9699;DHT22;10089;47.876;8.346;2023-07-02T00:43:11;16.40;99.90
9699;DHT22;10089;47.876;8.346;2023-07-02T00:45:39;16.00;99.90
9699;DHT22;10089;47.876;8.346;2023-07-02T00:48:05;15.50;99.90
9699;DHT22;10089;47.876;8.346;2023-07-02T00:50:31;16.20;99.90
9699;DHT22;10089;47.876;8.346;2023-07-02T00:52:57;14.80;99.90
9699;DHT22;10089;47.876;8.346;2023-07-02T00:55:23;15.80;99.90
9699;DHT22;10089;47.876;8.346;2023-07-02T00:57:49;14.50;99.90
9699;DHT22;10089;47.876;8.346;2023-07-02T01:00:15;16.10;99.90
9699;DHT22;10089;47.876;8.346;2023-07-02T01:02:41;14.50;99.90
9699;DHT22;10089;47.876;8.346;2023-07-02T01:05:15;15.80;99.90
9699;DHT22;10089;47.876;8.346;2023-07-02T01:07:41;14.80;99.90
9699;DHT22;10089;47.876;8.346;2023-07-02T01:10:07;15.20;99.90
9699;DHT22;10089;47.876;8.346;2023-07-02T01:12:34;14.30;99.90
9699;DHT22;10089;47.876;8.346;2023-07-02T01:15:02;15.80;99.90
9699;DHT22;10089;47.876;8.346;2023-07-02T01:17:29;14.30;99.90
9699;DHT22;10089;47.876;8.346;2023-07-02T01:20:03;16.40;99.90
9699;DHT22;10089;47.876;8.346;2023-07-02T01:22:30;13.70;99.90
9699;DHT22;10089;47.876;8.346;2023-07-02T01:24:56;14.20;99.90
9699;DHT22;10089;47.876;8.346;2023-07-02T01:27:22;14.20;99.90
9699;DHT22;10089;47.876;8.346;2023-07-02T01:29:52;15.80;99.90
9699;DHT22;10089;47.876;8.346;2023-07-02T01:32:17;14.30;99.90
9699;DHT22;10089;47.876;8.346;2023-07-02T01:34:43;14.40;99.90
9699;DHT22;10089;47.876;8.346;2023-07-02T01:37:17;15.90;99.90
9699;DHT22;10089;47.876;8.346;2023-07-02T01:39:44;15.50;99.90
9699;DHT22;10089;47.876;8.346;2023-07-02T01:42:12;14.10;99.90
9699;DHT22;10089;47.876;8.346;2023-07-02T01:44:38;14.30;99.90
9699;DHT22;10089;47.876;8.346;2023-07-02T01:47:04;16.00;99.90
9699;DHT22;10089;47.876;8.346;2023-07-02T01:49:30;14.40;99.90
9699;DHT22;10089;47.876;8.346;2023-07-02T01:51:57;14.30;99.90
9699;DHT22;10089;47.876;8.346;2023-07-02T01:54:25;14.10;99.90
9699;DHT22;10089;47.876;8.346;2023-07-02T01:56:52;15.80;99.90
9699;DHT22;10089;47.876;8.346;2023-07-02T01:59:18;14.10;99.90
9699;DHT22;10089;47.876;8.346;2023-07-02T02:01:44;14.90;99.90
9699;DHT22;10089;47.876;8.346;2023-07-02T02:04:10;16.10;99.90
9699;DHT22;10089;47.876;8.346;2023-07-02T02:06:38;15.50;99.90
9699;DHT22;10089;47.876;8.346;2023-07-02T02:09:04;15.20;99.90
9699;DHT22;10089;47.876;8.346;2023-07-02T02:11:31;14.40;99.90
9699;DHT22;10089;47.876;8.346;2023-07-02T02:13:57;14.10;99.90
9699;DHT22;10089;47.876;8.346;2023-07-02T02:16:24;16.00;99.90
9699;DHT22;10089;47.876;8.346;2023-07-02T02:18:49;15.00;99.90
9699;DHT22;10089;47.876;8.346;2023-07-02T02:21:17;14.80;99.90
9699;DHT22;10089;47.876;8.346;2023-07-02T02:23:44;14.70;99.90
9699;DHT22;10089;47.876;8.346;2023-07-02T02:26:09;14.60;99.90
9699;DHT22;10089;47.876;8.346;2023-07-02T02:28:35;15.80;99.90
9699;DHT22;10089;47.876;8.346;2023-07-02T02:31:01;16.60;99.90
9699;DHT22;10089;47.876;8.346;2023-07-02T02:33:27;16.00;99.90
9699;DHT22;10089;47.876;8.346;2023-07-02T02:35:53;16.50;99.90
9699;DHT22;10089;47.876;8.346;2023-07-02T02:38:19;16.60;99.90
9699;DHT22;10089;47.876;8.346;2023-07-02T02:40:44;15.60;99.90
9699;DHT22;10089;47.876;8.346;2023-07-02T02:43:10;16.90;99.90
9699;DHT22;10089;47.876;8.346;2023-07-02T02:45:36;16.10;99.90
9699;DHT22;10089;47.876;8.346;2023-07-02T02:48:01;15.40;99.90
9699;DHT22;10089;47.876;8.346;2023-07-02T02:50:27;14.80;99.90
9699;DHT22;10089;47.876;8.346;2023-07-02T02:52:52;15.50;99.90
9699;DHT22;10089;47.876;8.346;2023-07-02T02:55:18;15.20;99.90
9699;DHT22;10089;47.876;8.346;2023-07-02T02:57:44;16.20;99.90
9699;DHT22;10089;47.876;8.346;2023-07-02T03:00:10;15.50;99.90
9699;DHT22;10089;47.876;8.346;2023-07-02T03:02:37;14.70;99.90
9699;DHT22;10089;47.876;8.346;2023-07-02T03:05:05;14.80;99.90
9699;DHT22;10089;47.876;8.346;2023-07-02T03:07:32;14.70;99.90
9699;DHT22;10089;47.876;8.346;2023-07-02T03:09:58;15.90;99.90
9699;DHT22;10089;47.876;8.346;2023-07-02T03:12:25;16.20;99.90
9699;DHT22;10089;47.876;8.346;2023-07-02T03:14:50;16.20;99.90
9699;DHT22;10089;47.876;8.346;2023-07-02T03:17:20;14.70;99.90
9699;DHT22;10089;47.876;8.346;2023-07-02T03:19:46;16.60;99.90
9699;DHT22;10089;47.876;8.346;2023-07-02T03:22:12;15.60;99.90
9699;DHT22;10089;47.876;8.346;2023-07-02T03:24:37;14.80;99.90
9699;DHT22;10089;47.876;8.346;2023-07-02T03:27:03;15.80;99.90
9699;DHT22;10089;47.876;8.346;2023-07-02T03:29:29;14.70;99.90
9699;DHT22;10089;47.876;8.346;2023-07-02T03:31:55;14.70;99.90
9699;DHT22;10089;47.876;8.346;2023-07-02T03:34:20;15.80;99.90
9699;DHT22;10089;47.876;8.346;2023-07-02T03:36:48;15.00;99.90
9699;DHT22;10089;47.876;8.346;2023-07-02T03:39:13;15.90;99.90
9699;DHT22;10089;47.876;8.346;2023-07-02T03:41:39;16.30;99.90
9699;DHT22;10089;47.876;8.346;2023-07-02T03:44:04;16.20;99.90
9699;DHT22;10089;47.876;8.346;2023-07-02T03:46:30;16.30;99.90
9699;DHT22;10089;47.876;8.346;2023-07-02T03:48:56;16.30;99.90
9699;DHT22;10089;47.876;8.346;2023-07-02T03:51:22;15.20;99.90
9699;DHT22;10089;47.876;8.346;2023-07-02T03:53:48;16.10;99.90
9699;DHT22;10089;47.876;8.346;2023-07-02T03:56:13;15.20;99.90
9699;DHT22;10089;47.876;8.346;2023-07-02T03:58:42;14.90;99.90
9699;DHT22;10089;47.876;8.346;2023-07-02T04:01:08;16.10;99.90
9699;DHT22;10089;47.876;8.346;2023-07-02T04:03:34;15.10;99.90
9699;DHT22;10089;47.876;8.346;2023-07-02T04:05:59;16.20;99.90
9699;DHT22;10089;47.876;8.346;2023-07-02T04:08:25;15.70;99.90
9699;DHT22;10089;47.876;8.346;2023-07-02T04:10:53;15.00;99.90
9699;DHT22;10089;47.876;8.346;2023-07-02T04:13:19;15.10;99.90
9699;DHT22;10089;47.876;8.346;2023-07-02T04:15:45;15.60;99.90
9699;DHT22;10089;47.876;8.346;2023-07-02T04:18:11;16.20;99.90
9699;DHT22;10089;47.876;8.346;2023-07-02T04:20:36;14.90;99.90
9699;DHT22;10089;47.876;8.346;2023-07-02T04:23:05;15.20;99.90
9699;DHT22;10089;47.876;8.346;2023-07-02T04:25:30;14.90;99.90
9699;DHT22;10089;47.876;8.346;2023-07-02T04:27:56;14.70;99.90
9699;DHT22;10089;47.876;8.346;2023-07-02T04:30:24;14.30;99.90
9699;DHT22;10089;47.876;8.346;2023-07-02T04:32:50;14.90;99.90
9699;DHT22;10089;47.876;8.346;2023-07-02T04:35:16;15.60;99.90
9699;DHT22;10089;47.876;8.346;2023-07-02T04:37:41;14.40;99.90
9699;DHT22;10089;47.876;8.346;2023-07-02T04:40:07;15.50;99.90
9699;DHT22;10089;47.876;8.346;2023-07-02T04:42:37;14.30;99.90
9699;DHT22;10089;47.876;8.346;2023-07-02T04:45:06;15.60;99.90
9699;DHT22;10089;47.876;8.346;2023-07-02T04:47:36;14.50;99.90
9699;DHT22;10089;47.876;8.346;2023-07-02T04:50:02;14.30;99.90
9699;DHT22;10089;47.876;8.346;2023-07-02T04:52:28;14.40;99.90
9699;DHT22;10089;47.876;8.346;2023-07-02T04:54:53;14.70;99.90
9699;DHT22;10089;47.876;8.346;2023-07-02T04:57:21;16.00;99.90
9699;DHT22;10089;47.876;8.346;2023-07-02T04:59:47;14.90;99.90
9699;DHT22;10089;47.876;8.346;2023-07-02T05:02:13;15.10;99.90
9699;DHT22;10089;47.876;8.346;2023-07-02T05:04:38;15.00;99.90
9699;DHT22;10089;47.876;8.346;2023-07-02T05:07:04;15.00;99.90
9699;DHT22;10089;47.876;8.346;2023-07-02T05:09:30;15.70;99.90
9699;DHT22;10089;47.876;8.346;2023-07-02T05:11:56;15.90;99.90
9699;DHT22;10089;47.876;8.346;2023-07-02T05:14:21;14.20;99.90
9699;DHT22;10089;47.876;8.346;2023-07-02T05:16:48;16.10;99.90
9699;DHT22;10089;47.876;8.346;2023-07-02T05:19:14;14.20;99.90
9699;DHT22;10089;47.876;8.346;2023-07-02T05:21:39;14.90;99.90
9699;DHT22;10089;47.876;8.346;2023-07-02T05:24:05;15.50;99.90
9699;DHT22;10089;47.876;8.346;2023-07-02T05:26:32;14.20;99.90
9699;DHT22;10089;47.876;8.346;2023-07-02T05:28:58;14.40;99.90
9699;DHT22;10089;47.876;8.346;2023-07-02T05:31:23;15.00;99.90
9699;DHT22;10089;47.876;8.346;2023-07-02T05:33:49;14.90;99.90
9699;DHT22;10089;47.876;8.346;2023-07-02T05:36:15;15.50;99.90
9699;DHT22;10089;47.876;8.346;2023-07-02T05:38:46;14.20;99.90
9699;DHT22;10089;47.876;8.346;2023-07-02T05:41:18;15.10;99.90
9699;DHT22;10089;47.876;8.346;2023-07-02T05:43:44;14.10;99.90
9699;DHT22;10089;47.876;8.346;2023-07-02T05:46:09;15.10;99.90
9699;DHT22;10089;47.876;8.346;2023-07-02T05:48:35;14.10;99.90
9699;DHT22;10089;47.876;8.346;2023-07-02T05:51:01;14.00;99.90
9699;DHT22;10089;47.876;8.346;2023-07-02T05:53:27;14.20;99.90
9699;DHT22;10089;47.876;8.346;2023-07-02T05:55:53;14.30;99.90
9699;DHT22;10089;47.876;8.346;2023-07-02T05:58:19;14.00;99.90
9699;DHT22;10089;47.876;8.346;2023-07-02T06:00:44;13.80;99.90
9699;DHT22;10089;47.876;8.346;2023-07-02T06:03:15;13.80;99.90
9699;DHT22;10089;47.876;8.346;2023-07-02T06:05:47;15.70;99.90
9699;DHT22;10089;47.876;8.346;2023-07-02T06:08:17;14.40;99.90
9699;DHT22;10089;47.876;8.346;2023-07-02T06:10:47;14.40;99.90
9699;DHT22;10089;47.876;8.346;2023-07-02T06:13:13;14.40;99.90
9699;DHT22;10089;47.876;8.346;2023-07-02T06:15:38;14.40;99.90
9699;DHT22;10089;47.876;8.346;2023-07-02T06:18:04;14.60;99.90
9699;DHT22;10089;47.876;8.346;2023-07-02T06:20:30;14.50;99.90
9699;DHT22;10089;47.876;8.346;2023-07-02T06:22:56;15.90;99.90
9699;DHT22;10089;47.876;8.346;2023-07-02T06:25:21;14.90;99.90
9699;DHT22;10089;47.876;8.346;2023-07-02T06:27:47;16.30;99.90
9699;DHT22;10089;47.876;8.346;2023-07-02T06:30:13;15.00;81.00
9699;DHT22;10089;47.876;8.346;2023-07-02T06:32:38;14.60;99.90
9699;DHT22;10089;47.876;8.346;2023-07-02T06:35:04;16.40;91.30
9699;DHT22;10089;47.876;8.346;2023-07-02T06:37:31;14.70;92.40
9699;DHT22;10089;47.876;8.346;2023-07-02T06:39:57;14.70;75.40
9699;DHT22;10089;47.876;8.346;2023-07-02T06:42:23;15.00;99.90
9699;DHT22;10089;47.876;8.346;2023-07-02T06:44:49;14.90;99.90
9699;DHT22;10089;47.876;8.346;2023-07-02T06:47:15;15.40;92.60
9699;DHT22;10089;47.876;8.346;2023-07-02T06:49:40;14.70;96.00
9699;DHT22;10089;47.876;8.346;2023-07-02T06:52:06;14.80;99.90
9699;DHT22;10089;47.876;8.346;2023-07-02T06:54:31;15.10;99.90
9699;DHT22;10089;47.876;8.346;2023-07-02T06:56:57;16.60;99.90
9699;DHT22;10089;47.876;8.346;2023-07-02T06:59:23;15.00;99.90
9699;DHT22;10089;47.876;8.346;2023-07-02T07:01:49;15.00;92.40
9699;DHT22;10089;47.876;8.346;2023-07-02T07:04:15;15.70;92.30
9699;DHT22;10089;47.876;8.346;2023-07-02T07:06:42;15.00;76.40
9699;DHT22;10089;47.876;8.346;2023-07-02T07:09:08;17.00;1.00
9699;DHT22;10089;47.876;8.346;2023-07-02T07:11:34;14.70;1.00
9699;DHT22;10089;47.876;8.346;2023-07-02T07:13:59;15.30;1.00
9699;DHT22;10089;47.876;8.346;2023-07-02T07:16:25;15.50;90.30
9699;DHT22;10089;47.876;8.346;2023-07-02T07:18:50;14.90;29.20
9699;DHT22;10089;47.876;8.346;2023-07-02T07:21:16;15.20;99.70
9699;DHT22;10089;47.876;8.346;2023-07-02T07:23:41;15.00;57.20
9699;DHT22;10089;47.876;8.346;2023-07-02T07:26:07;15.20;35.40
9699;DHT22;10089;47.876;8.346;2023-07-02T07:28:33;15.30;1.00
9699;DHT22;10089;47.876;8.346;2023-07-02T07:30:58;16.80;25.60
9699;DHT22;10089;47.876;8.346;2023-07-02T07:33:24;16.80;1.00
9699;DHT22;10089;47.876;8.346;2023-07-02T07:35:49;16.00;1.00
9699;DHT22;10089;47.876;8.346;2023-07-02T07:38:15;15.70;1.00
9699;DHT22;10089;47.876;8.346;2023-07-02T07:40:42;15.40;1.00
9699;DHT22;10089;47.876;8.346;2023-07-02T07:43:08;17.90;1.00
9699;DHT22;10089;47.876;8.346;2023-07-02T07:45:33;15.90;1.00
9699;DHT22;10089;47.876;8.346;2023-07-02T07:47:59;16.70;1.00
9699;DHT22;10089;47.876;8.346;2023-07-02T07:50:25;16.80;1.00
9699;DHT22;10089;47.876;8.346;2023-07-02T07:52:51;15.70;1.00
9699;DHT22;10089;47.876;8.346;2023-07-02T07:55:17;17.60;1.00
9699;DHT22;10089;47.876;8.346;2023-07-02T07:57:43;16.50;1.00
9699;DHT22;10089;47.876;8.346;2023-07-02T08:00:09;15.80;1.00
9699;DHT22;10089;47.876;8.346;2023-07-02T08:02:37;16.00;1.00
9699;DHT22;10089;47.876;8.346;2023-07-02T08:05:03;16.80;1.00
9699;DHT22;10089;47.876;8.346;2023-07-02T08:07:31;16.30;1.00
9699;DHT22;10089;47.876;8.346;2023-07-02T08:09:56;18.00;1.00
9699;DHT22;10089;47.876;8.346;2023-07-02T08:12:22;17.20;99.90
9699;DHT22;10089;47.876;8.346;2023-07-02T08:14:49;17.30;1.00
9699;DHT22;10089;47.876;8.346;2023-07-02T08:17:15;16.90;1.00
9699;DHT22;10089;47.876;8.346;2023-07-02T08:19:40;17.30;99.90
9699;DHT22;10089;47.876;8.346;2023-07-02T08:22:06;19.00;1.00
9699;DHT22;10089;47.876;8.346;2023-07-02T08:24:32;18.40;99.90
9699;DHT22;10089;47.876;8.346;2023-07-02T08:26:58;19.80;99.90
9699;DHT22;10089;47.876;8.346;2023-07-02T08:29:24;20.10;99.90
9699;DHT22;10089;47.876;8.346;2023-07-02T08:31:49;18.40;1.00
9699;DHT22;10089;47.876;8.346;2023-07-02T08:34:15;20.10;13.00
9699;DHT22;10089;47.876;8.346;2023-07-02T08:36:40;20.70;1.00
9699;DHT22;10089;47.876;8.346;2023-07-02T08:39:09;20.10;99.90
9699;DHT22;10089;47.876;8.346;2023-07-02T08:41:43;18.20;1.00
9699;DHT22;10089;47.876;8.346;2023-07-02T08:44:11;17.80;99.90
9699;DHT22;10089;47.876;8.346;2023-07-02T08:46:36;19.00;99.90
9699;DHT22;10089;47.876;8.346;2023-07-02T08:49:02;17.70;99.90
9699;DHT22;10089;47.876;8.346;2023-07-02T08:51:28;19.30;1.00
9699;DHT22;10089;47.876;8.346;2023-07-02T08:53:54;18.80;99.90
9699;DHT22;10089;47.876;8.346;2023-07-02T08:56:19;18.80;99.90
9699;DHT22;10089;47.876;8.346;2023-07-02T08:58:45;18.70;1.00
9699;DHT22;10089;47.876;8.346;2023-07-02T09:01:14;18.60;99.90
9699;DHT22;10089;47.876;8.346;2023-07-02T09:03:40;18.50;12.20
9699;DHT22;10089;47.876;8.346;2023-07-02T09:06:08;19.30;99.90
9699;DHT22;10089;47.876;8.346;2023-07-02T09:08:34;19.40;99.90
9699;DHT22;10089;47.876;8.346;2023-07-02T09:11:13;19.50;1.00
9699;DHT22;10089;47.876;8.346;2023-07-02T09:13:50;19.50;99.90
9699;DHT22;10089;47.876;8.346;2023-07-02T09:16:26;20.10;1.00
9699;DHT22;10089;47.876;8.346;2023-07-02T09:19:05;21.20;1.00
9699;DHT22;10089;47.876;8.346;2023-07-02T09:24:21;20.90;1.00
9699;DHT22;10089;47.876;8.346;2023-07-02T09:26:50;21.60;99.90
9699;DHT22;10089;47.876;8.346;2023-07-02T09:29:25;21.10;1.00
9699;DHT22;10089;47.876;8.346;2023-07-02T09:31:58;20.80;1.00
9699;DHT22;10089;47.876;8.346;2023-07-02T09:34:32;20.70;1.00
9699;DHT22;10089;47.876;8.346;2023-07-02T09:36:59;20.50;99.90
9699;DHT22;10089;47.876;8.346;2023-07-02T09:39:34;22.00;99.90
9699;DHT22;10089;47.876;8.346;2023-07-02T09:42:02;20.90;99.90
9699;DHT22;10089;47.876;8.346;2023-07-02T09:44:31;21.00;1.00
9699;DHT22;10089;47.876;8.346;2023-07-02T09:47:07;22.00;99.90
9699;DHT22;10089;47.876;8.346;2023-07-02T09:49:41;21.70;1.00
9699;DHT22;10089;47.876;8.346;2023-07-02T09:52:08;21.50;1.00
9699;DHT22;10089;47.876;8.346;2023-07-02T09:54:34;21.00;99.90
9699;DHT22;10089;47.876;8.346;2023-07-02T09:57:00;20.50;1.00
9699;DHT22;10089;47.876;8.346;2023-07-02T09:59:26;20.70;1.00
9699;DHT22;10089;47.876;8.346;2023-07-02T10:01:53;20.60;1.00
9699;DHT22;10089;47.876;8.346;2023-07-02T10:04:20;20.80;99.90
9699;DHT22;10089;47.876;8.346;2023-07-02T10:07:04;21.50;99.90
9699;DHT22;10089;47.876;8.346;2023-07-02T10:09:42;20.40;1.00
9699;DHT22;10089;47.876;8.346;2023-07-02T10:12:22;20.10;1.00
9699;DHT22;10089;47.876;8.346;2023-07-02T10:14:50;19.90;92.10
9699;DHT22;10089;47.876;8.346;2023-07-02T10:17:28;20.00;1.00
9699;DHT22;10089;47.876;8.346;2023-07-02T10:19:57;20.20;99.90
9699;DHT22;10089;47.876;8.346;2023-07-02T10:22:23;21.40;1.00
9699;DHT22;10089;47.876;8.346;2023-07-02T10:24:57;20.80;1.00
9699;DHT22;10089;47.876;8.346;2023-07-02T10:27:38;20.10;53.60
9699;DHT22;10089;47.876;8.346;2023-07-02T10:30:05;19.90;1.00
9699;DHT22;10089;47.876;8.346;2023-07-02T10:32:33;20.00;99.90
9699;DHT22;10089;47.876;8.346;2023-07-02T10:34:59;20.10;99.90
9699;DHT22;10089;47.876;8.346;2023-07-02T10:37:35;21.00;1.00
9699;DHT22;10089;47.876;8.346;2023-07-02T10:40:06;20.20;99.90
9699;DHT22;10089;47.876;8.346;2023-07-02T10:42:32;20.00;1.00
9699;DHT22;10089;47.876;8.346;2023-07-02T10:44:59;20.90;1.00
9699;DHT22;10089;47.876;8.346;2023-07-02T10:47:25;21.60;1.00
9699;DHT22;10089;47.876;8.346;2023-07-02T10:49:50;21.00;69.30
9699;DHT22;10089;47.876;8.346;2023-07-02T10:52:16;21.30;99.90
9699;DHT22;10089;47.876;8.346;2023-07-02T10:54:46;20.20;99.90
9699;DHT22;10089;47.876;8.346;2023-07-02T10:57:17;20.70;99.90
9699;DHT22;10089;47.876;8.346;2023-07-02T10:59:45;21.40;1.00
9699;DHT22;10089;47.876;8.346;2023-07-02T11:02:11;21.00;1.00
9699;DHT22;10089;47.876;8.346;2023-07-02T11:04:37;21.80;1.00
9699;DHT22;10089;47.876;8.346;2023-07-02T11:07:04;20.60;91.00
9699;DHT22;10089;47.876;8.346;2023-07-02T11:09:29;20.40;99.90
9699;DHT22;10089;47.876;8.346;2023-07-02T11:11:57;21.00;99.90
9699;DHT22;10089;47.876;8.346;2023-07-02T11:14:31;20.30;1.00
9699;DHT22;10089;47.876;8.346;2023-07-02T11:16:57;20.20;99.90
9699;DHT22;10089;47.876;8.346;2023-07-02T11:19:23;20.50;1.00
9699;DHT22;10089;47.876;8.346;2023-07-02T11:21:56;20.90;99.90
9699;DHT22;10089;47.876;8.346;2023-07-02T11:24:36;20.60;1.00
9699;DHT22;10089;47.876;8.346;2023-07-02T11:27:05;20.00;1.00
9699;DHT22;10089;47.876;8.346;2023-07-02T11:29:32;20.10;99.90
9699;DHT22;10089;47.876;8.346;2023-07-02T11:32:11;20.10;99.90
9699;DHT22;10089;47.876;8.346;2023-07-02T11:34:38;20.50;1.00
9699;DHT22;10089;47.876;8.346;2023-07-02T11:37:04;20.60;1.00
9699;DHT22;10089;47.876;8.346;2023-07-02T11:39:30;20.60;99.90
9699;DHT22;10089;47.876;8.346;2023-07-02T11:41:56;20.80;67.60
9699;DHT22;10089;47.876;8.346;2023-07-02T11:44:22;21.50;99.90
9699;DHT22;10089;47.876;8.346;2023-07-02T11:46:48;21.60;99.90
9699;DHT22;10089;47.876;8.346;2023-07-02T11:49:14;20.10;1.00
9699;DHT22;10089;47.876;8.346;2023-07-02T11:51:41;20.20;99.90
9699;DHT22;10089;47.876;8.346;2023-07-02T11:54:07;21.20;2.90
9699;DHT22;10089;47.876;8.346;2023-07-02T11:56:33;20.40;99.90
9699;DHT22;10089;47.876;8.346;2023-07-02T11:58:59;20.20;99.90
9699;DHT22;10089;47.876;8.346;2023-07-02T12:01:25;21.30;99.90
9699;DHT22;10089;47.876;8.346;2023-07-02T12:03:51;20.20;1.00
9699;DHT22;10089;47.876;8.346;2023-07-02T12:06:16;21.10;15.00
9699;DHT22;10089;47.876;8.346;2023-07-02T12:08:42;20.50;1.00
9699;DHT22;10089;47.876;8.346;2023-07-02T12:11:08;20.80;1.00
9699;DHT22;10089;47.876;8.346;2023-07-02T12:13:33;19.80;99.90
9699;DHT22;10089;47.876;8.346;2023-07-02T12:15:59;20.40;1.00
9699;DHT22;10089;47.876;8.346;2023-07-02T12:18:25;19.70;1.00
9699;DHT22;10089;47.876;8.346;2023-07-02T12:20:50;19.90;1.00
9699;DHT22;10089;47.876;8.346;2023-07-02T12:23:16;20.80;1.00
9699;DHT22;10089;47.876;8.346;2023-07-02T12:25:42;21.40;99.90
9699;DHT22;10089;47.876;8.346;2023-07-02T12:28:07;20.00;1.00
9699;DHT22;10089;47.876;8.346;2023-07-02T12:30:33;20.10;1.00
9699;DHT22;10089;47.876;8.346;2023-07-02T12:32:58;19.90;99.90
9699;DHT22;10089;47.876;8.346;2023-07-02T12:35:24;20.70;1.00
9699;DHT22;10089;47.876;8.346;2023-07-02T12:37:51;20.20;1.00
9699;DHT22;10089;47.876;8.346;2023-07-02T12:40:19;21.50;99.90
9699;DHT22;10089;47.876;8.346;2023-07-02T12:42:45;20.60;1.00
9699;DHT22;10089;47.876;8.346;2023-07-02T12:45:12;20.20;99.90
9699;DHT22;10089;47.876;8.346;2023-07-02T12:47:39;20.10;99.90
9699;DHT22;10089;47.876;8.346;2023-07-02T12:50:05;20.90;92.40
9699;DHT22;10089;47.876;8.346;2023-07-02T12:52:32;20.30;89.60
9699;DHT22;10089;47.876;8.346;2023-07-02T12:54:57;20.90;1.00
9699;DHT22;10089;47.876;8.346;2023-07-02T12:57:23;20.60;99.90
9699;DHT22;10089;47.876;8.346;2023-07-02T12:59:49;20.50;99.90
9699;DHT22;10089;47.876;8.346;2023-07-02T13:02:14;20.20;1.00
9699;DHT22;10089;47.876;8.346;2023-07-02T13:04:40;20.40;1.00
9699;DHT22;10089;47.876;8.346;2023-07-02T13:07:06;20.60;1.00
9699;DHT22;10089;47.876;8.346;2023-07-02T13:09:31;20.70;99.90
9699;DHT22;10089;47.876;8.346;2023-07-02T13:11:57;20.70;4.40
9699;DHT22;10089;47.876;8.346;2023-07-02T13:14:23;21.40;1.00
9699;DHT22;10089;47.876;8.346;2023-07-02T13:16:48;20.50;1.00
9699;DHT22;10089;47.876;8.346;2023-07-02T13:19:14;20.50;99.90
9699;DHT22;10089;47.876;8.346;2023-07-02T13:21:41;20.30;1.00
9699;DHT22;10089;47.876;8.346;2023-07-02T13:24:07;20.30;1.00
9699;DHT22;10089;47.876;8.346;2023-07-02T13:26:32;20.40;99.90
9699;DHT22;10089;47.876;8.346;2023-07-02T13:28:58;21.20;1.00
9699;DHT22;10089;47.876;8.346;2023-07-02T13:31:23;21.00;1.00
9699;DHT22;10089;47.876;8.346;2023-07-02T13:33:49;20.70;1.00
9699;DHT22;10089;47.876;8.346;2023-07-02T13:36:16;21.10;99.90
9699;DHT22;10089;47.876;8.346;2023-07-02T13:38:42;22.40;1.00
9699;DHT22;10089;47.876;8.346;2023-07-02T13:41:08;21.80;92.20
9699;DHT22;10089;47.876;8.346;2023-07-02T13:43:34;21.30;99.90
9699;DHT22;10089;47.876;8.346;2023-07-02T13:45:59;21.30;1.00
9699;DHT22;10089;47.876;8.346;2023-07-02T13:48:25;21.50;1.00
9699;DHT22;10089;47.876;8.346;2023-07-02T13:50:51;21.30;1.00
9699;DHT22;10089;47.876;8.346;2023-07-02T13:53:16;21.40;1.00
9699;DHT22;10089;47.876;8.346;2023-07-02T13:55:42;21.80;1.00
9699;DHT22;10089;47.876;8.346;2023-07-02T13:58:07;20.90;1.00
9699;DHT22;10089;47.876;8.346;2023-07-02T14:00:33;20.90;1.20
9699;DHT22;10089;47.876;8.346;2023-07-02T14:02:58;20.80;4.30
9699;DHT22;10089;47.876;8.346;2023-07-02T14:05:24;21.10;1.00
9699;DHT22;10089;47.876;8.346;2023-07-02T14:07:50;21.10;99.90
9699;DHT22;10089;47.876;8.346;2023-07-02T14:10:16;21.10;99.90
9699;DHT22;10089;47.876;8.346;2023-07-02T14:12:42;20.90;1.00
9699;DHT22;10089;47.876;8.346;2023-07-02T14:15:08;21.30;1.00
9699;DHT22;10089;47.876;8.346;2023-07-02T14:17:34;21.50;1.00
9699;DHT22;10089;47.876;8.346;2023-07-02T14:20:00;22.50;99.90
9699;DHT22;10089;47.876;8.346;2023-07-02T14:22:26;21.60;99.90
9699;DHT22;10089;47.876;8.346;2023-07-02T14:24:52;21.00;1.00
9699;DHT22;10089;47.876;8.346;2023-07-02T14:27:17;21.40;99.90
9699;DHT22;10089;47.876;8.346;2023-07-02T14:29:43;21.80;99.90
9699;DHT22;10089;47.876;8.346;2023-07-02T14:32:09;21.60;86.50
9699;DHT22;10089;47.876;8.346;2023-07-02T14:34:34;21.70;1.00
9699;DHT22;10089;47.876;8.346;2023-07-02T14:37:02;21.40;1.00
9699;DHT22;10089;47.876;8.346;2023-07-02T14:39:28;21.40;1.00
9699;DHT22;10089;47.876;8.346;2023-07-02T14:41:53;21.50;1.00
9699;DHT22;10089;47.876;8.346;2023-07-02T14:44:19;22.40;1.00
9699;DHT22;10089;47.876;8.346;2023-07-02T14:46:44;21.60;1.00
9699;DHT22;10089;47.876;8.346;2023-07-02T14:49:10;21.60;1.00
9699;DHT22;10089;47.876;8.346;2023-07-02T14:51:35;21.60;1.00
9699;DHT22;10089;47.876;8.346;2023-07-02T14:54:01;21.60;1.00
9699;DHT22;10089;47.876;8.346;2023-07-02T14:56:29;21.70;1.00
9699;DHT22;10089;47.876;8.346;2023-07-02T14:58:55;21.80;1.00
9699;DHT22;10089;47.876;8.346;2023-07-02T15:01:21;21.70;1.00
9699;DHT22;10089;47.876;8.346;2023-07-02T15:03:47;21.80;1.00
9699;DHT22;10089;47.876;8.346;2023-07-02T15:06:16;21.50;1.00
9699;DHT22;10089;47.876;8.346;2023-07-02T15:08:42;21.90;1.00
9699;DHT22;10089;47.876;8.346;2023-07-02T15:11:08;21.70;1.00
9699;DHT22;10089;47.876;8.346;2023-07-02T15:13:35;21.70;1.00
9699;DHT22;10089;47.876;8.346;2023-07-02T15:16:01;22.30;1.00
9699;DHT22;10089;47.876;8.346;2023-07-02T15:18:27;22.00;1.00
9699;DHT22;10089;47.876;8.346;2023-07-02T15:20:53;21.60;1.00
9699;DHT22;10089;47.876;8.346;2023-07-02T15:23:19;22.40;1.00
9699;DHT22;10089;47.876;8.346;2023-07-02T15:25:57;21.30;1.00
9699;DHT22;10089;47.876;8.346;2023-07-02T15:28:24;21.70;1.00
9699;DHT22;10089;47.876;8.346;2023-07-02T15:31:02;21.30;1.00
9699;DHT22;10089;47.876;8.346;2023-07-02T15:33:28;21.20;1.00
9699;DHT22;10089;47.876;8.346;2023-07-02T15:35:53;21.30;33.60
9699;DHT22;10089;47.876;8.346;2023-07-02T15:38:19;22.30;90.70
9699;DHT22;10089;47.876;8.346;2023-07-02T15:40:47;21.40;1.00
9699;DHT22;10089;47.876;8.346;2023-07-02T15:43:13;21.40;1.00
9699;DHT22;10089;47.876;8.346;2023-07-02T15:45:39;21.40;1.00
9699;DHT22;10089;47.876;8.346;2023-07-02T15:48:05;21.40;1.00
9699;DHT22;10089;47.876;8.346;2023-07-02T15:50:31;21.20;1.00
9699;DHT22;10089;47.876;8.346;2023-07-02T15:52:56;21.20;1.00